createdAt,value
2016-10-27T00:01:02.001Z,21.3
2016-10-27T00:02:14.665Z,21.19
2016-10-27T00:03:27.343Z,21.03
2016-10-27T00:04:39.877Z,20.82
2016-10-27T00:05:53.452Z,20.61
2016-10-27T00:07:06.441Z,20.48
2016-10-27T00:08:20.022Z,20.29
2016-10-27T00:09:33.555Z,20.33
2016-10-27T00:10:46.088Z,20.23
2016-10-27T00:11:58.591Z,20.26
2016-10-27T00:13:11.671Z,20.34
2016-10-27T00:14:24.621Z,20.37
2016-10-27T00:15:38.169Z,20.5
2016-10-27T00:16:50.174Z,20.56
2016-10-27T00:18:03.233Z,20.6
2016-10-27T00:19:16.238Z,20.65
2016-10-27T00:20:29.224Z,20.7
2016-10-27T00:21:42.756Z,20.82
2016-10-27T00:22:55.183Z,20.93
2016-10-27T00:24:06.575Z,21.03
2016-10-27T00:25:20.067Z,21.03
2016-10-27T00:26:32.501Z,21
2016-10-27T00:27:45.010Z,21.05
2016-10-27T00:28:58.632Z,21.01
2016-10-27T00:30:11.677Z,20.97
2016-10-27T00:31:24.727Z,21.01
2016-10-27T00:32:37.785Z,21.04
2016-10-27T00:33:50.343Z,21.03
2016-10-27T00:35:03.411Z,21
2016-10-27T00:36:15.930Z,20.97
2016-10-27T00:37:28.948Z,21.01
2016-10-27T00:38:42.099Z,21.16
2016-10-27T00:39:55.174Z,21.18
2016-10-27T00:41:08.233Z,21.19
2016-10-27T00:42:21.288Z,21.28
2016-10-27T00:43:34.912Z,21.3
2016-10-27T00:44:46.840Z,21.32
2016-10-27T00:46:00.475Z,21.32
2016-10-27T00:47:13.016Z,21.4
2016-10-27T00:48:26.576Z,21.43
2016-10-27T00:49:38.562Z,21.5
2016-10-27T00:50:51.023Z,21.47
2016-10-27T00:52:03.012Z,21.47
2016-10-27T00:53:16.116Z,21.59
2016-10-27T00:54:28.683Z,21.63
2016-10-27T00:55:41.141Z,21.6
2016-10-27T00:56:54.647Z,21.73
2016-10-27T00:58:06.607Z,21.67
2016-10-27T00:59:18.587Z,21.71
2016-10-27T01:00:31.100Z,21.63
2016-10-27T01:01:44.119Z,21.62
2016-10-27T01:02:57.123Z,21.65
2016-10-27T01:04:09.609Z,21.74
2016-10-27T01:05:21.521Z,21.65
2016-10-27T01:06:34.038Z,21.65
2016-10-27T01:07:46.518Z,21.59
2016-10-27T01:08:58.953Z,21.47
2016-10-27T01:10:11.412Z,21.51
2016-10-27T01:11:24.415Z,21.47
2016-10-27T01:12:36.362Z,21.48
2016-10-27T01:13:49.402Z,21.41
2016-10-27T01:15:01.877Z,21.45
2016-10-27T01:16:14.937Z,21.41
2016-10-27T01:17:28.498Z,21.5
2016-10-27T01:18:40.995Z,21.5
2016-10-27T01:19:54.035Z,21.53
2016-10-27T01:21:07.014Z,21.6
2016-10-27T01:22:19.551Z,21.59
2016-10-27T01:23:32.065Z,21.58
2016-10-27T01:24:45.632Z,21.55
2016-10-27T01:25:58.834Z,21.59
2016-10-27T01:27:11.375Z,21.59
2016-10-27T01:28:24.412Z,21.63
2016-10-27T01:29:37.540Z,21.67
2016-10-27T01:30:51.179Z,21.67
2016-10-27T01:32:04.217Z,21.67
2016-10-27T01:33:17.774Z,21.63
2016-10-27T01:34:30.902Z,21.65
2016-10-27T01:35:44.018Z,21.66
2016-10-27T01:36:57.047Z,21.69
2016-10-27T01:38:10.646Z,21.63
2016-10-27T01:39:23.236Z,21.69
2016-10-27T01:40:35.812Z,21.73
2016-10-27T01:41:48.922Z,21.69
2016-10-27T01:43:02.537Z,21.67
2016-10-27T01:44:15.624Z,21.63
2016-10-27T01:45:29.258Z,21.71
2016-10-27T01:46:42.285Z,21.67
2016-10-27T01:47:55.398Z,21.67
2016-10-27T01:49:08.982Z,21.58
2016-10-27T01:50:22.040Z,21.58
2016-10-27T01:51:34.094Z,21.6
2016-10-27T01:52:46.674Z,21.56
2016-10-27T01:53:59.182Z,21.45
2016-10-27T01:55:12.744Z,21.44
2016-10-27T01:56:26.312Z,21.55
2016-10-27T01:57:39.907Z,21.53
2016-10-27T01:58:52.414Z,21.5
2016-10-27T02:00:05.417Z,21.43
2016-10-27T02:01:17.907Z,21.44
2016-10-27T02:02:30.945Z,21.43
2016-10-27T02:03:44.001Z,21.35
2016-10-27T02:04:57.097Z,21.35
2016-10-27T02:06:10.683Z,21.35
2016-10-27T02:07:24.259Z,21.35
2016-10-27T02:08:37.337Z,21.3
2016-10-27T02:09:50.422Z,21.38
2016-10-27T02:11:03.404Z,21.32
2016-10-27T02:12:16.982Z,21.32
2016-10-27T02:13:30.095Z,21.37
2016-10-27T02:14:43.171Z,21.28
2016-10-27T02:15:56.761Z,21.3
2016-10-27T02:17:09.814Z,21.28
2016-10-27T02:18:23.330Z,21.3
2016-10-27T02:19:36.802Z,21.32
2016-10-27T02:20:49.870Z,21.3
2016-10-27T02:22:02.878Z,21.32
2016-10-27T02:23:16.513Z,21.25
2016-10-27T02:24:29.018Z,21.19
2016-10-27T02:25:42.602Z,21.23
2016-10-27T02:26:56.117Z,21.2
2016-10-27T02:28:08.646Z,21.25
2016-10-27T02:29:21.722Z,21.26
2016-10-27T02:30:35.311Z,21.22
2016-10-27T02:31:48.420Z,21.29
2016-10-27T02:33:02.001Z,21.2
2016-10-27T02:34:15.595Z,21.16
2016-10-27T02:35:28.695Z,21.16
2016-10-27T02:36:41.677Z,21.18
2016-10-27T02:37:55.231Z,21.19
2016-10-27T02:39:08.816Z,21.18
2016-10-27T02:40:22.345Z,21.19
2016-10-27T02:41:35.350Z,21.16
2016-10-27T02:42:48.373Z,21.04
2016-10-27T02:44:01.456Z,20.92
2016-10-27T02:45:15.074Z,20.82
2016-10-27T02:46:28.172Z,20.86
2016-10-27T02:47:41.147Z,20.82
2016-10-27T02:48:54.162Z,20.82
2016-10-27T02:50:07.277Z,20.83
2016-10-27T02:51:20.919Z,20.86
2016-10-27T02:52:33.915Z,20.73
2016-10-27T02:53:46.931Z,20.79
2016-10-27T02:55:00.543Z,20.67
2016-10-27T02:56:14.148Z,20.64
2016-10-27T02:57:27.751Z,20.77
2016-10-27T02:58:40.805Z,20.75
2016-10-27T02:59:54.337Z,20.77
2016-10-27T03:01:07.947Z,20.83
2016-10-27T03:02:20.932Z,20.9
2016-10-27T03:03:34.001Z,20.75
2016-10-27T03:04:47.540Z,20.75
2016-10-27T03:06:00.537Z,20.75
2016-10-27T03:07:13.607Z,20.79
2016-10-27T03:08:27.182Z,20.86
2016-10-27T03:09:40.758Z,20.85
2016-10-27T03:10:54.426Z,20.89
2016-10-27T03:12:06.935Z,20.86
2016-10-27T03:13:19.424Z,20.8
2016-10-27T03:16:15.742Z,20.86
2016-10-27T03:17:57.460Z,20.93
2016-10-27T03:19:10.892Z,20.92
2016-10-27T03:20:39.001Z,20.95
2016-10-27T03:21:52.331Z,20.92
2016-10-27T03:23:05.878Z,21.01
2016-10-27T03:24:19.485Z,20.89
2016-10-27T03:25:32.493Z,20.98
2016-10-27T03:26:45.553Z,21.05
2016-10-27T03:27:58.156Z,21.01
2016-10-27T03:29:11.782Z,20.93
2016-10-27T03:30:24.858Z,21.04
2016-10-27T03:31:37.939Z,21.04
2016-10-27T03:32:51.500Z,21
2016-10-27T03:34:04.534Z,21.04
2016-10-27T03:35:17.614Z,21.07
2016-10-27T03:36:30.669Z,20.98
2016-10-27T03:37:44.199Z,20.98
2016-10-27T03:38:57.262Z,20.95
2016-10-27T03:40:10.884Z,20.98
2016-10-27T03:41:23.979Z,21
2016-10-27T03:42:36.502Z,21
2016-10-27T03:43:50.153Z,20.93
2016-10-27T03:45:03.178Z,20.92
2016-10-27T03:46:15.749Z,20.97
2016-10-27T03:47:28.762Z,21
2016-10-27T03:48:42.301Z,21.01
2016-10-27T03:49:54.831Z,20.97
2016-10-27T03:51:08.414Z,21
2016-10-27T03:52:21.484Z,20.98
2016-10-27T03:53:34.606Z,20.88
2016-10-27T03:54:47.611Z,20.98
2016-10-27T03:56:01.154Z,21.03
2016-10-27T03:57:14.701Z,20.95
2016-10-27T03:58:27.750Z,20.98
2016-10-27T03:59:41.376Z,20.98
2016-10-27T04:00:54.426Z,20.92
2016-10-27T04:02:07.994Z,21.05
2016-10-27T04:03:21.033Z,20.97
2016-10-27T04:04:34.082Z,20.9
2016-10-27T04:05:47.115Z,21.04
2016-10-27T04:07:00.212Z,21.03
2016-10-27T04:08:12.732Z,21.04
2016-10-27T04:09:26.340Z,20.88
2016-10-27T04:10:39.425Z,20.97
2016-10-27T04:11:52.968Z,20.97
2016-10-27T04:13:06.550Z,20.92
2016-10-27T04:14:19.576Z,20.88
2016-10-27T04:15:32.565Z,20.85
2016-10-27T04:16:46.151Z,20.93
2016-10-27T04:17:59.768Z,21.01
2016-10-27T04:19:12.886Z,20.95
2016-10-27T04:20:26.431Z,20.98
2016-10-27T04:21:38.436Z,20.98
2016-10-27T04:22:51.483Z,20.98
2016-10-27T04:24:04.498Z,20.88
2016-10-27T04:25:18.040Z,20.93
2016-10-27T04:26:30.521Z,20.95
2016-10-27T04:27:44.096Z,20.92
2016-10-27T04:28:57.156Z,20.88
2016-10-27T04:30:10.293Z,20.83
2016-10-27T04:31:22.830Z,20.85
2016-10-27T04:32:35.912Z,20.88
2016-10-27T04:33:48.463Z,20.83
2016-10-27T04:35:02.020Z,20.8
2016-10-27T04:36:15.537Z,20.88
2016-10-27T04:37:29.151Z,20.95
2016-10-27T04:38:42.203Z,20.93
2016-10-27T04:39:55.759Z,20.82
2016-10-27T04:41:09.321Z,20.98
2016-10-27T04:42:22.948Z,20.89
2016-10-27T04:43:36.009Z,20.9
2016-10-27T04:44:47.996Z,20.92
2016-10-27T04:46:00.558Z,20.92
2016-10-27T04:47:13.617Z,20.93
2016-10-27T04:48:26.141Z,20.95
2016-10-27T04:49:39.715Z,20.98
2016-10-27T04:50:52.741Z,20.95
2016-10-27T04:52:06.327Z,21.03
2016-10-27T04:53:19.398Z,21.04
2016-10-27T04:54:31.889Z,20.97
2016-10-27T04:55:44.917Z,21.03
2016-10-27T04:56:57.979Z,21.08
2016-10-27T04:58:10.460Z,21.04
2016-10-27T04:59:24.074Z,21.13
2016-10-27T05:00:36.019Z,21.13
2016-10-27T05:01:49.055Z,21.16
2016-10-27T05:03:02.070Z,21.13
2016-10-27T05:04:15.140Z,21.19
2016-10-27T05:05:28.712Z,21.2
2016-10-27T05:06:41.218Z,21.2
2016-10-27T05:07:53.746Z,21.19
2016-10-27T05:09:07.314Z,21.18
2016-10-27T05:10:20.382Z,21.2
2016-10-27T05:11:32.963Z,21.16
2016-10-27T05:12:46.007Z,21.2
2016-10-27T05:13:59.016Z,21.11
2016-10-27T05:15:12.312Z,21.13
2016-10-27T05:16:24.823Z,21.16
2016-10-27T05:17:36.797Z,21.22
2016-10-27T05:18:49.330Z,21.2
2016-10-27T05:20:01.818Z,21.19
2016-10-27T05:21:14.963Z,21.16
2016-10-27T05:22:27.993Z,21.18
2016-10-27T05:23:40.515Z,21.19
2016-10-27T05:24:53.036Z,21.22
2016-10-27T05:26:06.109Z,21.16
2016-10-27T05:27:18.582Z,21.25
2016-10-27T05:28:31.139Z,21.16
2016-10-27T05:29:44.760Z,21.18
2016-10-27T05:30:57.862Z,21.25
2016-10-27T05:32:10.440Z,21.18
2016-10-27T05:33:23.453Z,21.16
2016-10-27T05:34:36.528Z,21.18
2016-10-27T05:35:49.606Z,21.22
2016-10-27T05:37:02.723Z,21.11
2016-10-27T05:38:16.224Z,21.07
2016-10-27T05:39:29.282Z,21.14
2016-10-27T05:40:42.276Z,21.13
2016-10-27T05:41:55.307Z,21.07
2016-10-27T05:43:08.381Z,21.16
2016-10-27T05:44:20.895Z,21.05
2016-10-27T05:45:34.431Z,21.01
2016-10-27T05:46:47.989Z,21.03
2016-10-27T05:48:01.005Z,21.01
2016-10-27T05:49:14.143Z,21.01
2016-10-27T05:50:27.758Z,20.95
2016-10-27T05:51:40.791Z,21.01
2016-10-27T05:52:54.462Z,20.89
2016-10-27T05:54:06.979Z,20.88
2016-10-27T05:55:20.047Z,21.01
2016-10-27T05:56:33.118Z,20.88
2016-10-27T05:57:46.640Z,20.85
2016-10-27T05:58:59.126Z,20.85
2016-10-27T06:00:12.149Z,20.85
2016-10-27T06:01:25.175Z,20.88
2016-10-27T06:02:38.726Z,20.82
2016-10-27T06:03:52.269Z,20.89
2016-10-27T06:05:05.525Z,20.89
2016-10-27T06:06:19.127Z,20.86
2016-10-27T06:07:31.639Z,20.89
2016-10-27T06:08:44.271Z,20.83
2016-10-27T06:09:57.326Z,20.9
2016-10-27T06:11:09.872Z,20.82
2016-10-27T06:12:22.398Z,20.95
2016-10-27T06:13:35.408Z,20.98
2016-10-27T06:14:48.449Z,20.95
2016-10-27T06:16:01.510Z,20.9
2016-10-27T06:17:14.513Z,20.93
2016-10-27T06:18:27.583Z,20.95
2016-10-27T06:19:40.102Z,20.93
2016-10-27T06:20:52.676Z,20.98
2016-10-27T06:22:05.665Z,20.92
2016-10-27T06:23:18.127Z,20.95
2016-10-27T06:24:30.115Z,21
2016-10-27T06:25:43.238Z,20.92
2016-10-27T06:26:56.832Z,20.93
2016-10-27T06:28:10.372Z,20.93
2016-10-27T06:29:23.440Z,20.93
2016-10-27T06:30:36.485Z,20.95
2016-10-27T06:31:48.972Z,20.97
2016-10-27T06:33:01.522Z,20.93
2016-10-27T06:34:14.585Z,20.92
2016-10-27T06:35:27.614Z,20.95
2016-10-27T06:36:41.182Z,21
2016-10-27T06:37:54.759Z,20.95
2016-10-27T06:39:08.331Z,21.04
2016-10-27T06:40:20.827Z,21
2016-10-27T06:41:34.392Z,20.9
2016-10-27T06:42:47.419Z,20.83
2016-10-27T06:43:59.427Z,20.92
2016-10-27T06:45:12.497Z,20.85
2016-10-27T06:46:26.058Z,20.9
2016-10-27T06:47:39.625Z,20.88
2016-10-27T06:48:53.241Z,20.93
2016-10-27T06:50:06.877Z,20.98
2016-10-27T06:51:19.934Z,20.98
2016-10-27T06:52:33.549Z,20.82
2016-10-27T06:53:46.620Z,20.88
2016-10-27T06:54:59.723Z,20.83
2016-10-27T06:56:12.814Z,20.83
2016-10-27T06:57:25.809Z,20.77
2016-10-27T06:58:38.951Z,20.83
2016-10-27T06:59:52.020Z,20.85
2016-10-27T07:01:04.984Z,20.92
2016-10-27T07:02:18.044Z,20.85
2016-10-27T07:03:31.158Z,20.89
2016-10-27T07:04:44.190Z,20.85
2016-10-27T07:05:57.187Z,20.77
2016-10-27T07:07:10.249Z,20.75
2016-10-27T07:08:22.804Z,20.8
2016-10-27T07:09:35.948Z,20.77
2016-10-27T07:10:48.494Z,20.8
2016-10-27T07:12:01.509Z,20.74
2016-10-27T07:13:15.109Z,20.77
2016-10-27T07:14:28.086Z,20.7
2016-10-27T07:15:41.097Z,20.77
2016-10-27T07:16:54.692Z,20.77
2016-10-27T07:18:07.759Z,20.8
2016-10-27T07:19:20.828Z,20.75
2016-10-27T07:20:33.877Z,20.79
2016-10-27T07:21:47.461Z,20.73
2016-10-27T07:23:00.525Z,20.74
2016-10-27T07:24:13.620Z,20.65
2016-10-27T07:25:26.670Z,20.73
2016-10-27T07:26:40.231Z,20.71
2016-10-27T07:27:53.255Z,20.71
2016-10-27T07:29:06.873Z,20.65
2016-10-27T07:30:18.921Z,20.68
2016-10-27T07:31:31.456Z,20.65
2016-10-27T07:32:43.978Z,20.61
2016-10-27T07:33:57.059Z,20.64
2016-10-27T07:35:10.193Z,20.58
2016-10-27T07:36:23.756Z,20.6
2016-10-27T07:37:36.799Z,20.64
2016-10-27T07:38:50.346Z,20.6
2016-10-27T07:40:03.421Z,20.5
2016-10-27T07:41:15.897Z,20.61
2016-10-27T07:42:28.382Z,20.56
2016-10-27T07:43:41.401Z,20.55
2016-10-27T07:44:54.950Z,20.65
2016-10-27T07:46:06.884Z,20.63
2016-10-27T07:47:18.944Z,20.58
2016-10-27T07:48:32.498Z,20.56
2016-10-27T07:49:44.440Z,20.56
2016-10-27T07:50:57.966Z,20.61
2016-10-27T07:52:10.968Z,20.58
2016-10-27T07:53:24.065Z,20.49
2016-10-27T07:54:36.511Z,20.53
2016-10-27T07:55:49.553Z,20.5
2016-10-27T07:57:02.038Z,20.49
2016-10-27T07:58:15.138Z,20.52
2016-10-27T07:59:27.665Z,20.5
2016-10-27T08:00:40.197Z,20.53
2016-10-27T08:01:53.206Z,20.46
2016-10-27T08:03:06.192Z,20.5
2016-10-27T08:04:19.786Z,20.49
2016-10-27T08:05:32.250Z,20.5
2016-10-27T08:06:44.701Z,20.49
2016-10-27T08:07:57.740Z,20.52
2016-10-27T08:09:10.227Z,20.55
2016-10-27T08:10:22.846Z,20.5
2016-10-27T08:11:35.849Z,20.49
2016-10-27T08:12:48.865Z,20.5
2016-10-27T08:14:02.481Z,20.46
2016-10-27T08:15:16.050Z,20.49
2016-10-27T08:16:29.751Z,20.48
2016-10-27T08:17:43.347Z,20.52
2016-10-27T08:18:56.390Z,20.5
2016-10-27T08:20:08.912Z,20.44
2016-10-27T08:21:21.472Z,20.5
2016-10-27T08:22:34.583Z,20.49
2016-10-27T08:23:47.047Z,20.52
2016-10-27T08:25:00.150Z,20.48
2016-10-27T08:26:13.241Z,20.48
2016-10-27T08:27:25.785Z,20.52
2016-10-27T08:28:39.412Z,20.55
2016-10-27T08:29:52.429Z,20.53
2016-10-27T08:31:05.444Z,20.49
2016-10-27T08:32:18.446Z,20.49
2016-10-27T08:33:30.486Z,20.46
2016-10-27T08:34:43.486Z,20.53
2016-10-27T08:35:57.124Z,20.55
2016-10-27T08:37:09.156Z,20.5
2016-10-27T08:38:22.801Z,20.56
2016-10-27T08:39:35.358Z,20.56
2016-10-27T08:40:47.380Z,20.56
2016-10-27T08:41:59.399Z,20.67
2016-10-27T08:43:12.004Z,20.6
2016-10-27T08:44:24.476Z,20.7
2016-10-27T08:45:38.031Z,20.71
2016-10-27T08:46:51.701Z,20.68
2016-10-27T08:48:04.721Z,20.67
2016-10-27T08:49:17.249Z,20.7
2016-10-27T08:50:30.322Z,20.68
2016-10-27T08:51:42.851Z,20.7
2016-10-27T08:52:55.401Z,20.75
2016-10-27T08:54:08.492Z,20.7
2016-10-27T08:55:21.549Z,20.8
2016-10-27T08:56:34.029Z,20.73
2016-10-27T08:57:47.054Z,20.68
2016-10-27T08:59:00.686Z,20.77
2016-10-27T09:00:13.214Z,20.79
2016-10-27T09:01:26.289Z,20.77
2016-10-27T09:02:39.813Z,20.8
2016-10-27T09:03:52.868Z,20.77
2016-10-27T09:05:05.381Z,20.83
2016-10-27T09:06:18.987Z,20.79
2016-10-27T09:07:32.062Z,20.8
2016-10-27T09:08:43.507Z,20.83
2016-10-27T09:09:56.516Z,20.85
2016-10-27T09:11:09.562Z,20.86
2016-10-27T09:12:23.124Z,20.86
2016-10-27T09:13:36.748Z,20.85
2016-10-27T09:14:49.844Z,20.88
2016-10-27T09:16:02.362Z,20.86
2016-10-27T09:17:15.999Z,20.86
2016-10-27T09:18:29.587Z,21
2016-10-27T09:19:42.619Z,20.98
2016-10-27T09:20:55.654Z,20.95
2016-10-27T09:22:08.230Z,20.95
2016-10-27T09:23:21.238Z,20.98
2016-10-27T09:24:34.847Z,21.01
2016-10-27T09:25:46.820Z,20.93
2016-10-27T09:26:59.314Z,20.88
2016-10-27T09:28:12.953Z,21
2016-10-27T09:29:25.539Z,21
2016-10-27T09:30:38.671Z,20.92
2016-10-27T09:31:52.207Z,21.03
2016-10-27T09:33:05.779Z,20.98
2016-10-27T09:34:18.873Z,21
2016-10-27T09:35:31.882Z,20.92
2016-10-27T09:36:43.825Z,20.97
2016-10-27T09:37:56.883Z,20.93
2016-10-27T09:39:09.387Z,20.95
2016-10-27T09:40:21.952Z,21.04
2016-10-27T09:41:34.962Z,21.01
2016-10-27T09:42:47.536Z,21.01
2016-10-27T09:44:00.679Z,21.01
2016-10-27T09:45:14.260Z,20.9
2016-10-27T09:46:27.320Z,21.04
2016-10-27T09:47:40.316Z,20.92
2016-10-27T09:48:53.434Z,20.98
2016-10-27T09:50:07.019Z,21.11
2016-10-27T09:51:20.022Z,21.05
2016-10-27T09:52:33.112Z,21.05
2016-10-27T09:53:45.638Z,21.07
2016-10-27T09:54:58.563Z,21.07
2016-10-27T09:56:11.652Z,21.2
2016-10-27T09:57:24.144Z,21.14
2016-10-27T09:58:37.206Z,21.16
2016-10-27T09:59:50.226Z,21.19
2016-10-27T10:01:03.278Z,21.23
2016-10-27T10:02:15.798Z,21.28
2016-10-27T10:03:28.897Z,21.38
2016-10-27T10:04:42.480Z,21.34
2016-10-27T10:05:55.541Z,21.45
2016-10-27T10:07:08.617Z,21.45
2016-10-27T10:08:22.191Z,21.45
2016-10-27T10:09:35.246Z,21.45
2016-10-27T10:10:48.338Z,21.56
2016-10-27T10:12:00.915Z,21.53
2016-10-27T10:13:12.424Z,21.56
2016-10-27T10:14:24.956Z,21.56
2016-10-27T10:15:37.457Z,21.66
2016-10-27T10:16:51.040Z,21.67
2016-10-27T10:18:04.623Z,21.71
2016-10-27T10:19:17.158Z,21.73
2016-10-27T10:20:30.693Z,21.78
2016-10-27T10:21:43.248Z,21.77
2016-10-27T10:22:55.785Z,21.84
2016-10-27T10:24:09.424Z,22
2016-10-27T10:25:22.465Z,22.01
2016-10-27T10:26:36.004Z,22.13
2016-10-27T10:27:47.980Z,22.22
2016-10-27T10:29:00.006Z,22.37
2016-10-27T10:30:12.584Z,22.62
2016-10-27T10:31:25.080Z,22.74
2016-10-27T10:32:37.551Z,22.96
2016-10-27T10:33:51.062Z,23.21
2016-10-27T10:35:03.584Z,23.45
2016-10-27T10:36:16.741Z,23.81
2016-10-27T10:37:30.328Z,24.08
2016-10-27T10:38:42.911Z,24.23
2016-10-27T10:39:55.957Z,24.26
2016-10-27T10:41:08.497Z,24.15
2016-10-27T10:42:21.565Z,24.11
2016-10-27T10:43:35.159Z,24.03
2016-10-27T10:44:48.188Z,24.03
2016-10-27T10:46:01.768Z,24.13
2016-10-27T10:47:14.293Z,24
2016-10-27T10:48:26.832Z,23.86
2016-10-27T10:49:38.876Z,23.71
2016-10-27T10:50:51.880Z,23.73
2016-10-27T10:52:04.914Z,23.81
2016-10-27T10:53:18.532Z,23.71
2016-10-27T10:54:31.545Z,23.67
2016-10-27T10:55:44.110Z,23.61
2016-10-27T10:56:57.145Z,23.48
2016-10-27T10:58:10.170Z,23.55
2016-10-27T10:59:23.230Z,23.31
2016-10-27T11:00:36.787Z,23.34
2016-10-27T11:01:50.323Z,23.28
2016-10-27T11:03:03.383Z,23.23
2016-10-27T11:04:14.862Z,23.22
2016-10-27T11:05:27.961Z,23.22
2016-10-27T11:06:41.555Z,23.23
2016-10-27T11:07:54.611Z,23.17
2016-10-27T11:09:07.672Z,23.21
2016-10-27T11:10:20.774Z,23.21
2016-10-27T11:11:33.786Z,23.22
2016-10-27T11:12:47.349Z,23.21
2016-10-27T11:13:59.859Z,23.22
2016-10-27T11:15:12.925Z,23.34
2016-10-27T11:16:26.004Z,23.22
2016-10-27T11:17:39.591Z,23.25
2016-10-27T11:18:53.183Z,23.23
2016-10-27T11:20:06.216Z,23.15
2016-10-27T11:21:19.815Z,23.28
2016-10-27T11:22:32.861Z,23.29
2016-10-27T11:23:45.864Z,23.34
2016-10-27T11:24:58.929Z,23.33
2016-10-27T11:26:11.457Z,23.45
2016-10-27T11:27:24.553Z,23.48
2016-10-27T11:28:37.663Z,23.73
2016-10-27T11:29:50.687Z,23.81
2016-10-27T11:31:03.177Z,23.96
2016-10-27T11:32:16.253Z,24.04
2016-10-27T11:33:29.849Z,24.11
2016-10-27T11:34:43.364Z,24.13
2016-10-27T11:35:56.401Z,24.07
2016-10-27T11:37:08.918Z,23.88
2016-10-27T11:38:20.928Z,24.06
2016-10-27T11:39:34.456Z,24.1
2016-10-27T11:40:48.061Z,24.07
2016-10-27T11:42:01.593Z,23.96
2016-10-27T11:43:14.689Z,23.92
2016-10-27T11:44:27.213Z,23.88
2016-10-27T11:45:40.778Z,23.85
2016-10-27T11:46:52.774Z,23.82
2016-10-27T11:48:05.325Z,23.92
2016-10-27T11:49:18.947Z,23.89
2016-10-27T11:50:31.891Z,23.89
2016-10-27T11:51:44.993Z,23.82
2016-10-27T11:52:57.524Z,23.78
2016-10-27T11:54:11.124Z,23.82
2016-10-27T11:55:24.160Z,23.82
2016-10-27T11:56:36.661Z,23.79
2016-10-27T11:57:49.229Z,23.76
2016-10-27T11:59:02.376Z,23.79
2016-10-27T12:00:14.901Z,23.84
2016-10-27T12:01:27.393Z,23.89
2016-10-27T12:02:39.950Z,24.15
2016-10-27T12:03:52.977Z,24.34
2016-10-27T12:05:06.571Z,24.62
2016-10-27T12:06:19.611Z,24.78
2016-10-27T12:07:32.664Z,24.85
2016-10-27T12:08:45.197Z,25.03
2016-10-27T12:09:58.257Z,25.08
2016-10-27T12:11:10.764Z,25.19
2016-10-27T12:12:24.280Z,25.33
2016-10-27T12:13:36.859Z,25.7
2016-10-27T12:14:49.419Z,25.95
2016-10-27T12:16:02.999Z,26.1
2016-10-27T12:17:16.550Z,26.38
2016-10-27T12:18:30.189Z,26.43
2016-10-27T12:19:43.278Z,26.58
2016-10-27T12:20:56.369Z,26.7
2016-10-27T12:22:08.882Z,26.71
2016-10-27T12:23:22.442Z,26.67
2016-10-27T12:24:35.977Z,26.52
2016-10-27T12:25:49.568Z,26.36
2016-10-27T12:27:02.634Z,26.38
2016-10-27T12:28:15.722Z,26.26
2016-10-27T12:29:29.295Z,26.1
2016-10-27T12:30:42.367Z,25.98
2016-10-27T12:31:55.976Z,25.9
2016-10-27T12:33:08.001Z,25.93
2016-10-27T12:34:21.652Z,26.1
2016-10-27T12:35:34.786Z,26.15
2016-10-27T12:36:46.252Z,26.07
2016-10-27T12:37:58.780Z,26.03
2016-10-27T12:39:11.780Z,26.11
2016-10-27T12:40:24.861Z,26.31
2016-10-27T12:41:37.882Z,26.58
2016-10-27T12:42:51.480Z,26.6
2016-10-27T12:44:03.977Z,26.6
2016-10-27T12:45:17.097Z,26.58
2016-10-27T12:46:30.130Z,26.64
2016-10-27T12:47:43.191Z,26.67
2016-10-27T12:48:56.276Z,26.6
2016-10-27T12:50:08.768Z,26.73
2016-10-27T12:51:21.347Z,26.82
2016-10-27T12:52:34.407Z,26.93
2016-10-27T12:53:46.925Z,26.82
2016-10-27T12:55:00.552Z,26.97
2016-10-27T12:56:13.651Z,27.17
2016-10-27T12:57:26.719Z,27.4
2016-10-27T12:58:40.299Z,27.63
2016-10-27T12:59:52.944Z,27.91
2016-10-27T13:01:06.509Z,27.93
2016-10-27T13:02:19.536Z,28
2016-10-27T13:03:32.595Z,27.82
2016-10-27T13:04:46.205Z,27.57
2016-10-27T13:05:59.221Z,27.42
2016-10-27T13:07:12.363Z,27.44
2016-10-27T13:08:25.412Z,27.53
2016-10-27T13:09:38.426Z,27.57
2016-10-27T13:10:51.448Z,27.61
2016-10-27T13:12:03.949Z,27.61
2016-10-27T13:13:17.003Z,27.63
2016-10-27T13:14:29.536Z,27.6
2016-10-27T13:15:43.161Z,27.5
2016-10-27T13:16:56.735Z,27.31
2016-10-27T13:18:09.286Z,27.17
2016-10-27T13:19:22.903Z,27.07
2016-10-27T13:20:36.504Z,26.97
2016-10-27T13:21:50.054Z,26.76
2016-10-27T13:23:03.128Z,26.48
2016-10-27T13:24:16.731Z,26.36
2016-10-27T13:25:29.813Z,26.31
2016-10-27T13:26:42.915Z,26.33
2016-10-27T13:27:55.988Z,26.12
2016-10-27T13:29:08.999Z,26.03
2016-10-27T13:30:22.117Z,26.12
2016-10-27T13:31:35.236Z,26.05
2016-10-27T13:32:48.374Z,26
2016-10-27T13:34:01.399Z,25.98
2016-10-27T13:35:14.498Z,25.82
2016-10-27T13:36:28.062Z,25.68
2016-10-27T13:37:41.610Z,25.45
2016-10-27T13:38:54.199Z,25.46
2016-10-27T13:40:07.300Z,25.36
2016-10-27T13:41:19.314Z,25.31
2016-10-27T13:42:31.310Z,25.28
2016-10-27T13:43:44.415Z,25.3
2016-10-27T13:44:57.457Z,25.34
2016-10-27T13:46:10.546Z,25.4
2016-10-27T13:47:24.114Z,25.4
2016-10-27T13:48:36.619Z,25.41
2016-10-27T13:49:49.183Z,25.37
2016-10-27T13:51:02.762Z,25.26
2016-10-27T13:52:15.259Z,25.33
2016-10-27T13:53:28.781Z,25.41
2016-10-27T13:54:41.845Z,25.43
2016-10-27T13:55:54.960Z,25.37
2016-10-27T13:57:08.019Z,25.38
2016-10-27T13:58:20.051Z,25.3
2016-10-27T13:59:32.589Z,25.31
2016-10-27T14:00:45.646Z,25.16
2016-10-27T14:01:59.339Z,25.19
2016-10-27T14:03:12.431Z,25.16
2016-10-27T14:04:25.427Z,25.08
2016-10-27T14:05:37.946Z,25.14
2016-10-27T14:06:51.580Z,25.14
2016-10-27T14:08:04.673Z,25.18
2016-10-27T14:09:17.216Z,25.19
2016-10-27T14:10:30.230Z,25.21
2016-10-27T14:11:43.804Z,25.22
2016-10-27T14:12:56.343Z,25.22
2016-10-27T14:14:08.355Z,25.3
2016-10-27T14:15:20.333Z,25.08
2016-10-27T14:16:33.930Z,25
2016-10-27T14:17:47.057Z,25.01
2016-10-27T14:18:59.671Z,25.03
2016-10-27T14:20:12.744Z,24.85
2016-10-27T14:21:26.301Z,24.93
2016-10-27T14:22:38.869Z,24.89
2016-10-27T14:23:51.398Z,25.09
2016-10-27T14:25:04.424Z,25.08
2016-10-27T14:26:18.047Z,25.18
2016-10-27T14:27:30.032Z,25.21
2016-10-27T14:28:43.696Z,25.3
2016-10-27T14:29:56.797Z,25.37
2016-10-27T14:31:10.337Z,25.37
2016-10-27T14:32:23.362Z,25.4
2016-10-27T14:33:36.878Z,25.3
2016-10-27T14:34:49.953Z,25.18
2016-10-27T14:36:03.576Z,25.16
2016-10-27T14:37:17.157Z,25.09
2016-10-27T14:38:30.246Z,25.08
2016-10-27T14:39:43.829Z,25.04
2016-10-27T14:40:56.376Z,25.03
2016-10-27T14:42:09.377Z,25.01
2016-10-27T14:43:22.937Z,25.03
2016-10-27T14:44:36.499Z,24.97
2016-10-27T14:45:49.606Z,24.91
2016-10-27T14:47:03.156Z,24.94
2016-10-27T14:48:16.759Z,24.94
2016-10-27T14:49:30.351Z,25.01
2016-10-27T14:50:43.943Z,25.03
2016-10-27T14:51:57.575Z,25.04
2016-10-27T14:53:10.682Z,25.08
2016-10-27T14:54:23.276Z,25.03
2016-10-27T14:55:36.364Z,25.09
2016-10-27T14:56:49.377Z,25.27
2016-10-27T14:58:02.951Z,25.38
2016-10-27T14:59:15.922Z,25.38
2016-10-27T15:00:28.469Z,25.55
2016-10-27T15:01:41.035Z,25.56
2016-10-27T15:02:54.618Z,25.68
2016-10-27T15:04:07.681Z,25.83
2016-10-27T15:05:21.332Z,25.83
2016-10-27T15:06:34.950Z,25.82
2016-10-27T15:07:47.496Z,25.95
2016-10-27T15:09:00.545Z,25.9
2016-10-27T15:10:13.622Z,26
2016-10-27T15:11:26.099Z,25.9
2016-10-27T15:12:39.135Z,25.98
2016-10-27T15:13:52.190Z,25.96
2016-10-27T15:15:05.663Z,26.05
2016-10-27T15:16:19.161Z,26.04
2016-10-27T15:17:32.273Z,26.03
2016-10-27T15:18:45.337Z,26.01
2016-10-27T15:19:58.914Z,26.1
2016-10-27T15:21:12.503Z,26.15
2016-10-27T15:22:26.063Z,26.05
2016-10-27T15:23:39.147Z,26.12
2016-10-27T15:24:52.829Z,26.11
2016-10-27T15:26:05.901Z,26.19
2016-10-27T15:27:18.967Z,26.07
2016-10-27T15:28:32.048Z,26.2
2016-10-27T15:29:45.619Z,26.15
2016-10-27T15:30:57.606Z,26.01
2016-10-27T15:32:09.650Z,26.05
2016-10-27T15:33:22.651Z,26.01
2016-10-27T15:34:35.209Z,26.04
2016-10-27T15:35:47.744Z,26.04
2016-10-27T15:36:59.730Z,26.05
2016-10-27T15:38:12.836Z,26.19
2016-10-27T15:39:25.440Z,26.2
2016-10-27T15:40:37.958Z,26.21
2016-10-27T15:41:51.016Z,26.27
2016-10-27T15:43:04.071Z,26.27
2016-10-27T15:44:17.790Z,26.16
2016-10-27T15:45:31.389Z,26.16
2016-10-27T15:46:42.833Z,26.19
2016-10-27T15:47:56.359Z,26.08
2016-10-27T15:49:09.566Z,26.03